sensor_id;sensor_type;location;lat;lon;timestamp;P1;durP1;ratioP1;P2;durP2;ratioP2
17091;SDS011;8661;45.700;4.880;2024-03-07T00:00:06;7.53;;;5.13;;
17091;SDS011;8661;45.700;4.880;2024-03-07T00:02:39;8.23;;;5.23;;
17091;SDS011;8661;45.700;4.880;2024-03-07T00:05:07;8.90;;;5.43;;
17091;SDS011;8661;45.700;4.880;2024-03-07T00:07:34;7.73;;;5.37;;
17091;SDS011;8661;45.700;4.880;2024-03-07T00:10:01;7.93;;;5.60;;
17091;SDS011;8661;45.700;4.880;2024-03-07T00:12:29;9.43;;;5.37;;
17091;SDS011;8661;45.700;4.880;2024-03-07T00:14:57;8.90;;;5.53;;
17091;SDS011;8661;45.700;4.880;2024-03-07T00:17:26;13.03;;;5.80;;
17091;SDS011;8661;45.700;4.880;2024-03-07T00:19:53;10.73;;;6.10;;
17091;SDS011;8661;45.700;4.880;2024-03-07T00:22:20;10.83;;;6.40;;
17091;SDS011;8661;45.700;4.880;2024-03-07T00:24:47;7.73;;;5.80;;
17091;SDS011;8661;45.700;4.880;2024-03-07T00:27:14;11.10;;;5.43;;
17091;SDS011;8661;45.700;4.880;2024-03-07T00:29:42;8.43;;;4.73;;
17091;SDS011;8661;45.700;4.880;2024-03-07T00:32:11;11.10;;;5.63;;
17091;SDS011;8661;45.700;4.880;2024-03-07T00:34:40;11.90;;;5.97;;
17091;SDS011;8661;45.700;4.880;2024-03-07T00:37:07;13.27;;;5.53;;
17091;SDS011;8661;45.700;4.880;2024-03-07T00:39:34;11.33;;;6.73;;
17091;SDS011;8661;45.700;4.880;2024-03-07T00:42:01;12.03;;;6.50;;
17091;SDS011;8661;45.700;4.880;2024-03-07T00:44:28;11.87;;;6.30;;
17091;SDS011;8661;45.700;4.880;2024-03-07T00:46:55;12.67;;;6.27;;
17091;SDS011;8661;45.700;4.880;2024-03-07T00:49:22;8.40;;;5.23;;
17091;SDS011;8661;45.700;4.880;2024-03-07T00:51:51;9.80;;;5.10;;
17091;SDS011;8661;45.700;4.880;2024-03-07T00:54:19;7.73;;;4.60;;
17091;SDS011;8661;45.700;4.880;2024-03-07T00:56:46;9.77;;;4.70;;
17091;SDS011;8661;45.700;4.880;2024-03-07T00:59:14;9.00;;;4.63;;
17091;SDS011;8661;45.700;4.880;2024-03-07T01:01:41;10.63;;;4.33;;
17091;SDS011;8661;45.700;4.880;2024-03-07T01:04:08;9.70;;;4.40;;
17091;SDS011;8661;45.700;4.880;2024-03-07T01:06:35;7.20;;;4.33;;
17091;SDS011;8661;45.700;4.880;2024-03-07T01:09:03;8.77;;;4.30;;
17091;SDS011;8661;45.700;4.880;2024-03-07T01:11:38;6.77;;;3.93;;
17091;SDS011;8661;45.700;4.880;2024-03-07T01:14:05;5.80;;;3.90;;
17091;SDS011;8661;45.700;4.880;2024-03-07T01:16:32;6.20;;;3.77;;
17091;SDS011;8661;45.700;4.880;2024-03-07T01:18:59;5.63;;;3.93;;
17091;SDS011;8661;45.700;4.880;2024-03-07T01:21:26;6.50;;;4.10;;
17091;SDS011;8661;45.700;4.880;2024-03-07T01:23:53;5.07;;;3.67;;
17091;SDS011;8661;45.700;4.880;2024-03-07T01:26:21;7.30;;;3.83;;
17091;SDS011;8661;45.700;4.880;2024-03-07T01:28:49;9.80;;;4.00;;
17091;SDS011;8661;45.700;4.880;2024-03-07T01:31:17;16.43;;;5.53;;
17091;SDS011;8661;45.700;4.880;2024-03-07T01:33:44;13.30;;;6.87;;
17091;SDS011;8661;45.700;4.880;2024-03-07T01:36:11;12.83;;;6.47;;
17091;SDS011;8661;45.700;4.880;2024-03-07T01:38:38;12.53;;;7.70;;
17091;SDS011;8661;45.700;4.880;2024-03-07T01:41:04;12.83;;;7.97;;
17091;SDS011;8661;45.700;4.880;2024-03-07T01:43:33;13.97;;;6.17;;
17091;SDS011;8661;45.700;4.880;2024-03-07T01:46:00;12.87;;;7.13;;
17091;SDS011;8661;45.700;4.880;2024-03-07T01:48:27;10.83;;;7.87;;
17091;SDS011;8661;45.700;4.880;2024-03-07T01:50:55;14.20;;;8.67;;
17091;SDS011;8661;45.700;4.880;2024-03-07T01:53:22;12.93;;;7.67;;
17091;SDS011;8661;45.700;4.880;2024-03-07T01:55:50;12.30;;;8.00;;
17091;SDS011;8661;45.700;4.880;2024-03-07T01:58:18;16.00;;;8.23;;
17091;SDS011;8661;45.700;4.880;2024-03-07T02:00:48;11.13;;;7.30;;
17091;SDS011;8661;45.700;4.880;2024-03-07T02:03:15;10.93;;;6.43;;
17091;SDS011;8661;45.700;4.880;2024-03-07T02:05:43;16.70;;;7.80;;
17091;SDS011;8661;45.700;4.880;2024-03-07T02:08:10;14.23;;;7.67;;
17091;SDS011;8661;45.700;4.880;2024-03-07T02:10:37;17.43;;;7.77;;
17091;SDS011;8661;45.700;4.880;2024-03-07T02:13:04;13.70;;;8.67;;
17091;SDS011;8661;45.700;4.880;2024-03-07T02:15:31;13.60;;;7.87;;
17091;SDS011;8661;45.700;4.880;2024-03-07T02:18:00;14.43;;;8.70;;
17091;SDS011;8661;45.700;4.880;2024-03-07T02:20:27;12.13;;;8.00;;
17091;SDS011;8661;45.700;4.880;2024-03-07T02:22:55;15.10;;;9.13;;
17091;SDS011;8661;45.700;4.880;2024-03-07T02:25:22;13.93;;;8.43;;
17091;SDS011;8661;45.700;4.880;2024-03-07T02:27:49;17.87;;;8.53;;
17091;SDS011;8661;45.700;4.880;2024-03-07T02:30:16;13.63;;;8.10;;
17091;SDS011;8661;45.700;4.880;2024-03-07T02:32:45;18.17;;;8.80;;
17091;SDS011;8661;45.700;4.880;2024-03-07T02:35:17;12.47;;;8.80;;
17091;SDS011;8661;45.700;4.880;2024-03-07T02:37:44;13.80;;;8.77;;
17091;SDS011;8661;45.700;4.880;2024-03-07T02:40:14;13.37;;;8.20;;
17091;SDS011;8661;45.700;4.880;2024-03-07T02:42:41;14.57;;;9.47;;
17091;SDS011;8661;45.700;4.880;2024-03-07T02:45:08;13.30;;;8.77;;
17091;SDS011;8661;45.700;4.880;2024-03-07T02:47:39;12.60;;;8.53;;
17091;SDS011;8661;45.700;4.880;2024-03-07T02:50:09;14.93;;;8.17;;
17091;SDS011;8661;45.700;4.880;2024-03-07T02:52:36;13.80;;;8.33;;
17091;SDS011;8661;45.700;4.880;2024-03-07T02:55:04;14.30;;;7.63;;
17091;SDS011;8661;45.700;4.880;2024-03-07T02:57:36;14.13;;;8.83;;
17091;SDS011;8661;45.700;4.880;2024-03-07T03:00:04;12.50;;;8.00;;
17091;SDS011;8661;45.700;4.880;2024-03-07T03:02:38;13.67;;;7.10;;
17091;SDS011;8661;45.700;4.880;2024-03-07T03:05:06;12.20;;;7.67;;
17091;SDS011;8661;45.700;4.880;2024-03-07T03:07:37;13.90;;;7.80;;
17091;SDS011;8661;45.700;4.880;2024-03-07T03:10:05;11.47;;;7.30;;
17091;SDS011;8661;45.700;4.880;2024-03-07T03:12:34;12.50;;;7.60;;
17091;SDS011;8661;45.700;4.880;2024-03-07T03:15:03;14.53;;;7.70;;
17091;SDS011;8661;45.700;4.880;2024-03-07T03:17:31;11.53;;;7.30;;
17091;SDS011;8661;45.700;4.880;2024-03-07T03:19:58;15.30;;;8.10;;
17091;SDS011;8661;45.700;4.880;2024-03-07T03:22:26;11.80;;;7.20;;
17091;SDS011;8661;45.700;4.880;2024-03-07T03:24:52;16.17;;;7.87;;
17091;SDS011;8661;45.700;4.880;2024-03-07T03:27:20;11.77;;;7.57;;
17091;SDS011;8661;45.700;4.880;2024-03-07T03:29:49;12.80;;;7.27;;
17091;SDS011;8661;45.700;4.880;2024-03-07T03:32:16;15.43;;;7.67;;
17091;SDS011;8661;45.700;4.880;2024-03-07T03:34:43;11.17;;;6.77;;
17091;SDS011;8661;45.700;4.880;2024-03-07T03:37:11;11.43;;;7.60;;
17091;SDS011;8661;45.700;4.880;2024-03-07T03:39:37;11.27;;;6.80;;
17091;SDS011;8661;45.700;4.880;2024-03-07T03:42:04;11.57;;;6.97;;
17091;SDS011;8661;45.700;4.880;2024-03-07T03:44:32;13.00;;;7.00;;
17091;SDS011;8661;45.700;4.880;2024-03-07T03:47:01;10.83;;;6.83;;
17091;SDS011;8661;45.700;4.880;2024-03-07T03:49:29;14.77;;;7.07;;
17091;SDS011;8661;45.700;4.880;2024-03-07T03:51:56;11.73;;;7.17;;
17091;SDS011;8661;45.700;4.880;2024-03-07T03:54:24;10.47;;;6.40;;
17091;SDS011;8661;45.700;4.880;2024-03-07T03:56:50;9.10;;;6.73;;
17091;SDS011;8661;45.700;4.880;2024-03-07T03:59:18;13.27;;;6.70;;
17091;SDS011;8661;45.700;4.880;2024-03-07T04:01:44;7.87;;;6.10;;
17091;SDS011;8661;45.700;4.880;2024-03-07T04:04:13;8.97;;;6.13;;
17091;SDS011;8661;45.700;4.880;2024-03-07T04:06:40;11.13;;;5.93;;
17091;SDS011;8661;45.700;4.880;2024-03-07T04:09:06;9.03;;;5.63;;
17091;SDS011;8661;45.700;4.880;2024-03-07T04:11:33;9.83;;;6.40;;
17091;SDS011;8661;45.700;4.880;2024-03-07T04:14:01;10.53;;;6.53;;
17091;SDS011;8661;45.700;4.880;2024-03-07T04:16:29;8.07;;;6.23;;
17091;SDS011;8661;45.700;4.880;2024-03-07T04:18:56;11.33;;;7.17;;
17091;SDS011;8661;45.700;4.880;2024-03-07T04:21:24;10.90;;;6.67;;
17091;SDS011;8661;45.700;4.880;2024-03-07T04:23:51;10.70;;;6.97;;
17091;SDS011;8661;45.700;4.880;2024-03-07T04:26:20;7.67;;;6.13;;
17091;SDS011;8661;45.700;4.880;2024-03-07T04:28:47;11.47;;;6.83;;
17091;SDS011;8661;45.700;4.880;2024-03-07T04:31:15;11.27;;;7.30;;
17091;SDS011;8661;45.700;4.880;2024-03-07T04:33:42;9.80;;;5.73;;
17091;SDS011;8661;45.700;4.880;2024-03-07T04:36:09;8.77;;;6.67;;
17091;SDS011;8661;45.700;4.880;2024-03-07T04:38:38;10.63;;;6.47;;
17091;SDS011;8661;45.700;4.880;2024-03-07T04:41:10;10.13;;;6.13;;
17091;SDS011;8661;45.700;4.880;2024-03-07T04:43:37;13.17;;;6.97;;
17091;SDS011;8661;45.700;4.880;2024-03-07T04:46:04;11.20;;;7.33;;
17091;SDS011;8661;45.700;4.880;2024-03-07T04:48:31;10.87;;;7.47;;
17091;SDS011;8661;45.700;4.880;2024-03-07T04:50:58;12.33;;;7.43;;
17091;SDS011;8661;45.700;4.880;2024-03-07T04:53:25;12.77;;;8.20;;
17091;SDS011;8661;45.700;4.880;2024-03-07T04:55:54;14.07;;;7.40;;
17091;SDS011;8661;45.700;4.880;2024-03-07T04:58:21;12.30;;;7.73;;
17091;SDS011;8661;45.700;4.880;2024-03-07T05:00:48;10.63;;;7.77;;
17091;SDS011;8661;45.700;4.880;2024-03-07T05:03:15;11.77;;;8.60;;
17091;SDS011;8661;45.700;4.880;2024-03-07T05:05:42;13.57;;;8.47;;
17091;SDS011;8661;45.700;4.880;2024-03-07T05:08:09;31.70;;;19.30;;
17091;SDS011;8661;45.700;4.880;2024-03-07T05:10:37;24.13;;;12.53;;
17091;SDS011;8661;45.700;4.880;2024-03-07T05:13:05;23.03;;;11.70;;
17091;SDS011;8661;45.700;4.880;2024-03-07T05:15:32;14.30;;;9.17;;
17091;SDS011;8661;45.700;4.880;2024-03-07T05:17:59;14.83;;;9.37;;
17091;SDS011;8661;45.700;4.880;2024-03-07T05:20:26;17.87;;;12.70;;
17091;SDS011;8661;45.700;4.880;2024-03-07T05:22:53;16.40;;;10.60;;
17091;SDS011;8661;45.700;4.880;2024-03-07T05:25:20;16.90;;;10.40;;
17091;SDS011;8661;45.700;4.880;2024-03-07T05:27:47;14.20;;;9.03;;
17091;SDS011;8661;45.700;4.880;2024-03-07T05:30:17;14.30;;;9.33;;
17091;SDS011;8661;45.700;4.880;2024-03-07T05:32:44;15.23;;;9.17;;
17091;SDS011;8661;45.700;4.880;2024-03-07T05:35:13;11.93;;;9.23;;
17091;SDS011;8661;45.700;4.880;2024-03-07T05:37:40;15.27;;;9.70;;
17091;SDS011;8661;45.700;4.880;2024-03-07T05:40:12;18.17;;;9.33;;
17091;SDS011;8661;45.700;4.880;2024-03-07T05:42:39;15.33;;;8.83;;
17091;SDS011;8661;45.700;4.880;2024-03-07T05:45:06;16.63;;;8.80;;
17091;SDS011;8661;45.700;4.880;2024-03-07T05:47:35;14.33;;;7.53;;
17091;SDS011;8661;45.700;4.880;2024-03-07T05:50:02;15.23;;;8.03;;
17091;SDS011;8661;45.700;4.880;2024-03-07T05:52:32;17.30;;;9.87;;
17091;SDS011;8661;45.700;4.880;2024-03-07T05:55:00;15.40;;;7.60;;
17091;SDS011;8661;45.700;4.880;2024-03-07T05:57:27;15.00;;;7.27;;
17091;SDS011;8661;45.700;4.880;2024-03-07T05:59:54;15.70;;;6.90;;
17091;SDS011;8661;45.700;4.880;2024-03-07T06:02:21;10.60;;;6.40;;
17091;SDS011;8661;45.700;4.880;2024-03-07T06:04:50;15.30;;;7.67;;
17091;SDS011;8661;45.700;4.880;2024-03-07T06:07:17;13.60;;;7.80;;
17091;SDS011;8661;45.700;4.880;2024-03-07T06:09:44;10.23;;;6.80;;
17091;SDS011;8661;45.700;4.880;2024-03-07T06:12:11;12.70;;;8.23;;
17091;SDS011;8661;45.700;4.880;2024-03-07T06:14:38;17.30;;;9.07;;
17091;SDS011;8661;45.700;4.880;2024-03-07T06:17:04;20.87;;;10.63;;
17091;SDS011;8661;45.700;4.880;2024-03-07T06:19:32;22.43;;;9.97;;
17091;SDS011;8661;45.700;4.880;2024-03-07T06:22:00;18.60;;;9.70;;
17091;SDS011;8661;45.700;4.880;2024-03-07T06:24:31;24.37;;;10.37;;
17091;SDS011;8661;45.700;4.880;2024-03-07T06:26:58;20.57;;;10.30;;
17091;SDS011;8661;45.700;4.880;2024-03-07T06:29:28;19.03;;;10.43;;
17091;SDS011;8661;45.700;4.880;2024-03-07T06:31:57;12.27;;;7.87;;
17091;SDS011;8661;45.700;4.880;2024-03-07T06:34:25;13.27;;;7.83;;
17091;SDS011;8661;45.700;4.880;2024-03-07T06:36:55;12.40;;;7.23;;
17091;SDS011;8661;45.700;4.880;2024-03-07T06:39:23;14.97;;;7.17;;
17091;SDS011;8661;45.700;4.880;2024-03-07T06:41:50;11.77;;;7.40;;
17091;SDS011;8661;45.700;4.880;2024-03-07T06:44:17;9.60;;;6.60;;
17091;SDS011;8661;45.700;4.880;2024-03-07T06:46:48;13.53;;;6.67;;
17091;SDS011;8661;45.700;4.880;2024-03-07T06:49:15;14.53;;;7.37;;
17091;SDS011;8661;45.700;4.880;2024-03-07T06:51:42;11.67;;;6.83;;
17091;SDS011;8661;45.700;4.880;2024-03-07T06:54:09;11.70;;;7.30;;
17091;SDS011;8661;45.700;4.880;2024-03-07T06:56:37;10.23;;;6.77;;
17091;SDS011;8661;45.700;4.880;2024-03-07T06:59:05;12.60;;;7.03;;
17091;SDS011;8661;45.700;4.880;2024-03-07T07:01:32;10.37;;;7.27;;
17091;SDS011;8661;45.700;4.880;2024-03-07T07:03:59;11.17;;;7.27;;
17091;SDS011;8661;45.700;4.880;2024-03-07T07:06:28;10.33;;;6.63;;
17091;SDS011;8661;45.700;4.880;2024-03-07T07:08:56;9.90;;;6.30;;
17091;SDS011;8661;45.700;4.880;2024-03-07T07:11:23;12.13;;;6.73;;
17091;SDS011;8661;45.700;4.880;2024-03-07T07:13:52;12.90;;;6.57;;
17091;SDS011;8661;45.700;4.880;2024-03-07T07:16:19;10.53;;;6.47;;
17091;SDS011;8661;45.700;4.880;2024-03-07T07:18:46;12.50;;;6.40;;
17091;SDS011;8661;45.700;4.880;2024-03-07T07:21:13;14.05;;;7.95;;
17091;SDS011;8661;45.700;4.880;2024-03-07T07:23:41;16.10;;;7.03;;
17091;SDS011;8661;45.700;4.880;2024-03-07T07:26:08;11.83;;;5.90;;
17091;SDS011;8661;45.700;4.880;2024-03-07T07:28:35;12.20;;;6.33;;
17091;SDS011;8661;45.700;4.880;2024-03-07T07:31:04;9.67;;;6.10;;
17091;SDS011;8661;45.700;4.880;2024-03-07T07:33:30;14.07;;;5.60;;
17091;SDS011;8661;45.700;4.880;2024-03-07T07:35:57;14.77;;;6.47;;
17091;SDS011;8661;45.700;4.880;2024-03-07T07:38:25;12.23;;;5.23;;
17091;SDS011;8661;45.700;4.880;2024-03-07T07:40:52;11.77;;;5.70;;
17091;SDS011;8661;45.700;4.880;2024-03-07T07:43:19;10.03;;;4.93;;
17091;SDS011;8661;45.700;4.880;2024-03-07T07:45:46;9.73;;;5.37;;
17091;SDS011;8661;45.700;4.880;2024-03-07T07:48:14;19.70;;;6.47;;
17091;SDS011;8661;45.700;4.880;2024-03-07T07:50:42;10.33;;;5.23;;
17091;SDS011;8661;45.700;4.880;2024-03-07T07:53:08;10.50;;;5.63;;
17091;SDS011;8661;45.700;4.880;2024-03-07T07:55:35;10.43;;;5.00;;
17091;SDS011;8661;45.700;4.880;2024-03-07T07:58:03;11.50;;;5.17;;
17091;SDS011;8661;45.700;4.880;2024-03-07T08:00:30;8.37;;;5.10;;
17091;SDS011;8661;45.700;4.880;2024-03-07T08:02:58;15.10;;;5.37;;
17091;SDS011;8661;45.700;4.880;2024-03-07T08:05:27;12.93;;;5.43;;
17091;SDS011;8661;45.700;4.880;2024-03-07T08:07:56;10.03;;;4.97;;
17091;SDS011;8661;45.700;4.880;2024-03-07T08:10:25;9.90;;;5.80;;
17091;SDS011;8661;45.700;4.880;2024-03-07T08:12:53;12.90;;;5.10;;
17091;SDS011;8661;45.700;4.880;2024-03-07T08:15:20;13.20;;;6.13;;
17091;SDS011;8661;45.700;4.880;2024-03-07T08:17:48;16.30;;;5.57;;
17091;SDS011;8661;45.700;4.880;2024-03-07T08:20:17;11.80;;;5.83;;
17091;SDS011;8661;45.700;4.880;2024-03-07T08:22:47;14.80;;;5.70;;
17091;SDS011;8661;45.700;4.880;2024-03-07T08:25:16;7.87;;;5.50;;
17091;SDS011;8661;45.700;4.880;2024-03-07T08:27:47;12.33;;;6.10;;
17091;SDS011;8661;45.700;4.880;2024-03-07T08:30:15;13.53;;;6.67;;
17091;SDS011;8661;45.700;4.880;2024-03-07T08:32:43;11.27;;;5.90;;
17091;SDS011;8661;45.700;4.880;2024-03-07T08:35:11;15.07;;;6.47;;
17091;SDS011;8661;45.700;4.880;2024-03-07T08:37:38;8.67;;;5.93;;
17091;SDS011;8661;45.700;4.880;2024-03-07T08:40:07;11.30;;;6.07;;
17091;SDS011;8661;45.700;4.880;2024-03-07T08:42:36;7.93;;;5.97;;
17091;SDS011;8661;45.700;4.880;2024-03-07T08:45:04;11.87;;;5.90;;
17091;SDS011;8661;45.700;4.880;2024-03-07T08:47:31;19.17;;;9.30;;
17091;SDS011;8661;45.700;4.880;2024-03-07T08:49:59;12.20;;;6.37;;
17091;SDS011;8661;45.700;4.880;2024-03-07T08:52:26;11.70;;;6.40;;
17091;SDS011;8661;45.700;4.880;2024-03-07T08:54:54;8.47;;;5.00;;
17091;SDS011;8661;45.700;4.880;2024-03-07T08:57:22;9.80;;;4.90;;
17091;SDS011;8661;45.700;4.880;2024-03-07T08:59:49;8.23;;;5.13;;
17091;SDS011;8661;45.700;4.880;2024-03-07T09:02:16;6.40;;;4.33;;
17091;SDS011;8661;45.700;4.880;2024-03-07T09:04:43;7.73;;;4.70;;
17091;SDS011;8661;45.700;4.880;2024-03-07T09:07:11;9.27;;;5.33;;
17091;SDS011;8661;45.700;4.880;2024-03-07T09:09:39;9.03;;;4.50;;
17091;SDS011;8661;45.700;4.880;2024-03-07T09:12:08;6.33;;;4.67;;
17091;SDS011;8661;45.700;4.880;2024-03-07T09:14:37;6.07;;;4.80;;
17091;SDS011;8661;45.700;4.880;2024-03-07T09:17:05;7.63;;;4.27;;
17091;SDS011;8661;45.700;4.880;2024-03-07T09:19:32;7.77;;;4.67;;
17091;SDS011;8661;45.700;4.880;2024-03-07T09:21:59;8.03;;;4.30;;
17091;SDS011;8661;45.700;4.880;2024-03-07T09:24:30;8.20;;;4.90;;
17091;SDS011;8661;45.700;4.880;2024-03-07T09:26:57;7.50;;;4.60;;
17091;SDS011;8661;45.700;4.880;2024-03-07T09:29:24;7.87;;;4.53;;
17091;SDS011;8661;45.700;4.880;2024-03-07T09:31:52;8.63;;;5.03;;
17091;SDS011;8661;45.700;4.880;2024-03-07T09:34:20;10.60;;;5.37;;
17091;SDS011;8661;45.700;4.880;2024-03-07T09:36:47;10.17;;;5.30;;
17091;SDS011;8661;45.700;4.880;2024-03-07T09:39:14;7.63;;;4.73;;
17091;SDS011;8661;45.700;4.880;2024-03-07T09:41:41;6.47;;;4.23;;
17091;SDS011;8661;45.700;4.880;2024-03-07T09:44:09;4.77;;;3.63;;
17091;SDS011;8661;45.700;4.880;2024-03-07T09:46:38;5.77;;;3.70;;
17091;SDS011;8661;45.700;4.880;2024-03-07T09:49:08;7.50;;;3.83;;
17091;SDS011;8661;45.700;4.880;2024-03-07T09:51:38;6.00;;;4.33;;
17091;SDS011;8661;45.700;4.880;2024-03-07T09:54:05;6.77;;;4.30;;
17091;SDS011;8661;45.700;4.880;2024-03-07T09:56:33;6.60;;;4.50;;
17091;SDS011;8661;45.700;4.880;2024-03-07T09:59:03;6.60;;;4.40;;
17091;SDS011;8661;45.700;4.880;2024-03-07T10:01:32;6.87;;;4.37;;
17091;SDS011;8661;45.700;4.880;2024-03-07T10:04:01;10.00;;;4.43;;
17091;SDS011;8661;45.700;4.880;2024-03-07T10:06:38;13.20;;;5.17;;
17091;SDS011;8661;45.700;4.880;2024-03-07T10:09:05;6.67;;;4.70;;
17091;SDS011;8661;45.700;4.880;2024-03-07T10:11:33;7.07;;;4.67;;
17091;SDS011;8661;45.700;4.880;2024-03-07T10:14:00;7.63;;;5.00;;
17091;SDS011;8661;45.700;4.880;2024-03-07T10:16:29;7.37;;;4.57;;
17091;SDS011;8661;45.700;4.880;2024-03-07T10:18:57;6.47;;;4.33;;
17091;SDS011;8661;45.700;4.880;2024-03-07T10:21:26;6.53;;;5.00;;
17091;SDS011;8661;45.700;4.880;2024-03-07T10:24:05;7.87;;;4.73;;
17091;SDS011;8661;45.700;4.880;2024-03-07T10:26:33;5.17;;;4.17;;
17091;SDS011;8661;45.700;4.880;2024-03-07T10:29:03;6.10;;;4.70;;
17091;SDS011;8661;45.700;4.880;2024-03-07T10:31:31;6.80;;;4.47;;
17091;SDS011;8661;45.700;4.880;2024-03-07T10:33:59;7.43;;;4.47;;
17091;SDS011;8661;45.700;4.880;2024-03-07T10:36:27;9.77;;;4.60;;
17091;SDS011;8661;45.700;4.880;2024-03-07T10:38:55;8.83;;;4.93;;
17091;SDS011;8661;45.700;4.880;2024-03-07T10:41:40;8.13;;;4.30;;
17091;SDS011;8661;45.700;4.880;2024-03-07T10:44:18;7.70;;;4.40;;
17091;SDS011;8661;45.700;4.880;2024-03-07T10:46:49;6.30;;;4.33;;
17091;SDS011;8661;45.700;4.880;2024-03-07T10:49:19;8.07;;;5.23;;
17091;SDS011;8661;45.700;4.880;2024-03-07T10:51:51;8.97;;;4.50;;
17091;SDS011;8661;45.700;4.880;2024-03-07T10:54:29;7.10;;;4.77;;
17091;SDS011;8661;45.700;4.880;2024-03-07T10:57:09;7.17;;;4.80;;
17091;SDS011;8661;45.700;4.880;2024-03-07T10:59:45;6.57;;;4.97;;
17091;SDS011;8661;45.700;4.880;2024-03-07T11:02:18;7.23;;;4.57;;
17091;SDS011;8661;45.700;4.880;2024-03-07T11:04:53;7.70;;;4.67;;
17091;SDS011;8661;45.700;4.880;2024-03-07T11:07:22;9.37;;;4.80;;
17091;SDS011;8661;45.700;4.880;2024-03-07T11:09:49;6.17;;;4.97;;
17091;SDS011;8661;45.700;4.880;2024-03-07T11:12:22;6.27;;;4.77;;
17091;SDS011;8661;45.700;4.880;2024-03-07T11:14:52;7.87;;;4.77;;
17091;SDS011;8661;45.700;4.880;2024-03-07T11:17:21;7.37;;;4.57;;
17091;SDS011;8661;45.700;4.880;2024-03-07T11:19:49;9.07;;;4.78;;
17091;SDS011;8661;45.700;4.880;2024-03-07T11:25:04;6.57;;;4.60;;
17091;SDS011;8661;45.700;4.880;2024-03-07T11:27:34;6.47;;;4.40;;
17091;SDS011;8661;45.700;4.880;2024-03-07T11:30:04;7.70;;;4.23;;
17091;SDS011;8661;45.700;4.880;2024-03-07T11:32:34;6.57;;;3.90;;
17091;SDS011;8661;45.700;4.880;2024-03-07T11:35:03;4.53;;;3.67;;
17091;SDS011;8661;45.700;4.880;2024-03-07T11:37:39;4.53;;;4.03;;
17091;SDS011;8661;45.700;4.880;2024-03-07T11:40:13;7.27;;;3.73;;
17091;SDS011;8661;45.700;4.880;2024-03-07T11:43:01;4.47;;;3.63;;
17091;SDS011;8661;45.700;4.880;2024-03-07T11:45:29;4.47;;;4.07;;
17091;SDS011;8661;45.700;4.880;2024-03-07T11:48:03;3.60;;;3.30;;
17091;SDS011;8661;45.700;4.880;2024-03-07T11:50:33;5.97;;;4.00;;
17091;SDS011;8661;45.700;4.880;2024-03-07T11:53:01;4.83;;;3.70;;
17091;SDS011;8661;45.700;4.880;2024-03-07T11:55:30;5.20;;;3.70;;
17091;SDS011;8661;45.700;4.880;2024-03-07T11:58:11;6.80;;;3.83;;
17091;SDS011;8661;45.700;4.880;2024-03-07T12:00:39;3.60;;;3.30;;
17091;SDS011;8661;45.700;4.880;2024-03-07T12:03:07;5.63;;;4.00;;
17091;SDS011;8661;45.700;4.880;2024-03-07T12:05:38;6.80;;;4.63;;
17091;SDS011;8661;45.700;4.880;2024-03-07T12:08:06;4.23;;;3.40;;
17091;SDS011;8661;45.700;4.880;2024-03-07T12:10:34;4.73;;;3.33;;
17091;SDS011;8661;45.700;4.880;2024-03-07T12:13:04;3.13;;;2.80;;
17091;SDS011;8661;45.700;4.880;2024-03-07T12:15:33;4.23;;;3.00;;
17091;SDS011;8661;45.700;4.880;2024-03-07T12:18:01;3.80;;;2.83;;
17091;SDS011;8661;45.700;4.880;2024-03-07T12:20:34;5.37;;;3.47;;
17091;SDS011;8661;45.700;4.880;2024-03-07T12:23:06;5.30;;;3.27;;
17091;SDS011;8661;45.700;4.880;2024-03-07T12:25:34;7.13;;;3.53;;
17091;SDS011;8661;45.700;4.880;2024-03-07T12:28:05;7.63;;;3.47;;
17091;SDS011;8661;45.700;4.880;2024-03-07T12:30:38;4.63;;;3.33;;
17091;SDS011;8661;45.700;4.880;2024-03-07T12:33:16;3.63;;;3.07;;
17091;SDS011;8661;45.700;4.880;2024-03-07T12:35:44;5.03;;;3.30;;
17091;SDS011;8661;45.700;4.880;2024-03-07T12:38:13;3.87;;;2.87;;
17091;SDS011;8661;45.700;4.880;2024-03-07T12:40:41;5.53;;;3.20;;
17091;SDS011;8661;45.700;4.880;2024-03-07T12:43:13;4.97;;;3.17;;
17091;SDS011;8661;45.700;4.880;2024-03-07T12:45:47;3.60;;;3.00;;
17091;SDS011;8661;45.700;4.880;2024-03-07T12:48:15;3.73;;;2.80;;
17091;SDS011;8661;45.700;4.880;2024-03-07T12:50:44;6.50;;;4.03;;
17091;SDS011;8661;45.700;4.880;2024-03-07T12:53:12;4.70;;;3.17;;
17091;SDS011;8661;45.700;4.880;2024-03-07T12:55:39;3.67;;;3.20;;
17091;SDS011;8661;45.700;4.880;2024-03-07T12:58:07;3.70;;;3.17;;
17091;SDS011;8661;45.700;4.880;2024-03-07T13:00:36;3.67;;;3.37;;
17091;SDS011;8661;45.700;4.880;2024-03-07T13:03:05;4.20;;;3.20;;
17091;SDS011;8661;45.700;4.880;2024-03-07T13:05:32;4.00;;;3.40;;
17091;SDS011;8661;45.700;4.880;2024-03-07T13:07:59;5.23;;;3.20;;
17091;SDS011;8661;45.700;4.880;2024-03-07T13:10:26;6.10;;;3.60;;
17091;SDS011;8661;45.700;4.880;2024-03-07T13:12:53;4.40;;;3.17;;
17091;SDS011;8661;45.700;4.880;2024-03-07T13:15:20;4.67;;;3.00;;
17091;SDS011;8661;45.700;4.880;2024-03-07T13:17:49;4.53;;;3.07;;
17091;SDS011;8661;45.700;4.880;2024-03-07T13:20:20;3.60;;;2.80;;
17091;SDS011;8661;45.700;4.880;2024-03-07T13:22:52;3.77;;;2.70;;
17091;SDS011;8661;45.700;4.880;2024-03-07T13:25:22;3.23;;;2.53;;
17091;SDS011;8661;45.700;4.880;2024-03-07T13:27:55;2.90;;;2.60;;
17091;SDS011;8661;45.700;4.880;2024-03-07T13:30:25;4.13;;;2.80;;
17091;SDS011;8661;45.700;4.880;2024-03-07T13:32:54;4.70;;;2.60;;
17091;SDS011;8661;45.700;4.880;2024-03-07T13:35:22;2.93;;;2.50;;
17091;SDS011;8661;45.700;4.880;2024-03-07T13:37:51;4.27;;;2.87;;
17091;SDS011;8661;45.700;4.880;2024-03-07T13:40:21;2.97;;;2.47;;
17091;SDS011;8661;45.700;4.880;2024-03-07T13:42:50;5.20;;;2.40;;
17091;SDS011;8661;45.700;4.880;2024-03-07T13:45:22;4.43;;;2.60;;
17091;SDS011;8661;45.700;4.880;2024-03-07T13:47:51;3.73;;;2.40;;
17091;SDS011;8661;45.700;4.880;2024-03-07T13:50:19;5.77;;;2.67;;
17091;SDS011;8661;45.700;4.880;2024-03-07T13:52:50;3.93;;;2.20;;
17091;SDS011;8661;45.700;4.880;2024-03-07T13:55:50;6.97;;;2.93;;
17091;SDS011;8661;45.700;4.880;2024-03-07T13:58:28;2.43;;;2.17;;
17091;SDS011;8661;45.700;4.880;2024-03-07T14:01:18;3.00;;;2.13;;
17091;SDS011;8661;45.700;4.880;2024-03-07T14:04:16;4.07;;;2.50;;
17091;SDS011;8661;45.700;4.880;2024-03-07T14:07:17;3.80;;;2.50;;
17091;SDS011;8661;45.700;4.880;2024-03-07T14:10:05;7.83;;;2.20;;
17091;SDS011;8661;45.700;4.880;2024-03-07T14:13:09;3.80;;;1.80;;
17091;SDS011;8661;45.700;4.880;2024-03-07T14:22:07;1.80;;;1.50;;
17091;SDS011;8661;45.700;4.880;2024-03-07T14:28:05;2.77;;;1.83;;
17091;SDS011;8661;45.700;4.880;2024-03-07T14:30:41;3.03;;;1.80;;
17091;SDS011;8661;45.700;4.880;2024-03-07T14:33:18;3.00;;;1.70;;
17091;SDS011;8661;45.700;4.880;2024-03-07T14:35:58;2.70;;;1.63;;
17091;SDS011;8661;45.700;4.880;2024-03-07T14:38:29;3.17;;;1.60;;
17091;SDS011;8661;45.700;4.880;2024-03-07T14:41:08;3.47;;;2.03;;
17091;SDS011;8661;45.700;4.880;2024-03-07T14:43:37;2.30;;;1.73;;
17091;SDS011;8661;45.700;4.880;2024-03-07T14:46:06;2.33;;;1.40;;
17091;SDS011;8661;45.700;4.880;2024-03-07T14:48:34;2.07;;;1.60;;
17091;SDS011;8661;45.700;4.880;2024-03-07T14:51:02;1.83;;;1.40;;
17091;SDS011;8661;45.700;4.880;2024-03-07T14:53:30;1.73;;;1.23;;
17091;SDS011;8661;45.700;4.880;2024-03-07T14:55:57;2.33;;;1.60;;
17091;SDS011;8661;45.700;4.880;2024-03-07T14:58:26;5.13;;;1.60;;
17091;SDS011;8661;45.700;4.880;2024-03-07T15:00:52;2.17;;;1.53;;
17091;SDS011;8661;45.700;4.880;2024-03-07T15:03:20;2.03;;;1.40;;
17091;SDS011;8661;45.700;4.880;2024-03-07T15:05:47;2.23;;;1.73;;
17091;SDS011;8661;45.700;4.880;2024-03-07T15:08:14;2.57;;;1.57;;
17091;SDS011;8661;45.700;4.880;2024-03-07T15:10:42;2.63;;;1.80;;
17091;SDS011;8661;45.700;4.880;2024-03-07T15:13:14;1.70;;;1.33;;
17091;SDS011;8661;45.700;4.880;2024-03-07T15:15:43;2.57;;;1.50;;
17091;SDS011;8661;45.700;4.880;2024-03-07T15:18:10;1.40;;;1.17;;